createdAt,value
2022-09-26T00:00:36.264Z,5.00
2022-09-26T00:02:57.807Z,4.30
2022-09-26T00:05:19.319Z,3.80
2022-09-26T00:07:40.756Z,4.00
2022-09-26T00:10:02.353Z,3.93
2022-09-26T00:12:23.809Z,4.03
2022-09-26T00:14:45.286Z,4.50
2022-09-26T00:17:06.771Z,4.77
2022-09-26T00:19:28.233Z,4.70
2022-09-26T00:21:49.651Z,4.20
2022-09-26T00:24:11.777Z,4.03
2022-09-26T00:26:34.990Z,3.77
2022-09-26T00:28:57.704Z,4.00
2022-09-26T00:31:30.332Z,4.27
2022-09-26T00:33:52.032Z,4.20
2022-09-26T00:36:13.510Z,4.37
2022-09-26T00:38:35.684Z,4.57
2022-09-26T00:40:57.210Z,4.50
2022-09-26T00:43:33.376Z,4.07
2022-09-26T00:45:58.295Z,4.23
2022-09-26T00:48:19.841Z,4.00
2022-09-26T00:50:41.923Z,4.00
2022-09-26T00:53:12.881Z,3.57
2022-09-26T00:55:39.642Z,3.53
2022-09-26T00:58:08.903Z,3.40
2022-09-26T01:00:31.120Z,3.40
2022-09-26T01:02:53.607Z,3.03
2022-09-26T01:05:18.117Z,3.30
2022-09-26T01:07:39.957Z,3.50
2022-09-26T01:10:03.808Z,2.70
2022-09-26T01:12:25.319Z,3.27
2022-09-26T01:14:49.188Z,3.00
2022-09-26T01:17:11.574Z,3.30
2022-09-26T01:19:49.553Z,3.60
2022-09-26T01:22:58.164Z,3.33
2022-09-26T01:25:41.923Z,3.20
2022-09-26T01:28:34.628Z,3.07
2022-09-26T01:31:04.755Z,3.13
2022-09-26T01:33:47.593Z,2.60
2022-09-26T01:36:38.485Z,2.97
2022-09-26T01:39:18.117Z,3.27
2022-09-26T01:41:57.986Z,3.53
2022-09-26T01:44:20.099Z,3.53
2022-09-26T01:46:49.134Z,3.10
2022-09-26T01:49:43.277Z,3.37
2022-09-26T01:52:16.386Z,3.43
2022-09-26T01:54:44.774Z,3.27
2022-09-26T01:57:11.203Z,2.70
2022-09-26T01:59:39.495Z,3.80
2022-09-26T02:02:10.526Z,2.97
2022-09-26T02:04:39.476Z,2.90
2022-09-26T02:07:11.290Z,3.50
2022-09-26T02:09:42.613Z,3.40
2022-09-26T02:12:09.488Z,2.97
2022-09-26T02:14:36.512Z,3.67
2022-09-26T02:17:17.895Z,3.27
2022-09-26T02:19:56.808Z,3.30
2022-09-26T02:22:19.076Z,3.50
2022-09-26T02:24:40.558Z,3.23
2022-09-26T02:27:03.074Z,3.30
2022-09-26T02:29:24.638Z,2.97
2022-09-26T02:31:51.977Z,3.00
2022-09-26T02:34:13.454Z,3.03
2022-09-26T02:36:35.576Z,3.03
2022-09-26T02:38:57.016Z,2.93
2022-09-26T02:41:33.731Z,2.60
2022-09-26T02:44:12.675Z,2.80
2022-09-26T02:47:10.354Z,3.10
2022-09-26T02:49:59.129Z,3.03
2022-09-26T02:52:27.961Z,2.60
2022-09-26T02:55:06.481Z,2.77
2022-09-26T02:57:52.971Z,3.23
2022-09-26T03:00:25.411Z,3.30
2022-09-26T03:03:03.123Z,3.90
2022-09-26T03:05:29.718Z,3.13
2022-09-26T03:07:56.700Z,3.50
2022-09-26T03:10:19.622Z,3.00
2022-09-26T03:12:44.478Z,3.93
2022-09-26T03:15:07.500Z,3.00
2022-09-26T03:17:31.178Z,2.80
2022-09-26T03:19:58.080Z,2.47
2022-09-26T03:22:19.593Z,2.67
2022-09-26T03:24:42.663Z,2.60
2022-09-26T03:27:05.463Z,2.60
2022-09-26T03:29:26.949Z,2.67
2022-09-26T03:31:50.330Z,3.03
2022-09-26T03:34:12.439Z,5.53
2022-09-26T03:36:33.950Z,4.70
2022-09-26T03:38:55.417Z,4.40
2022-09-26T03:41:16.947Z,3.30
2022-09-26T03:43:39.056Z,3.97
2022-09-26T03:46:04.898Z,3.50
2022-09-26T03:48:26.701Z,2.67
2022-09-26T03:50:48.271Z,3.67
2022-09-26T03:53:09.736Z,2.30
2022-09-26T03:55:31.154Z,3.00
2022-09-26T03:57:52.607Z,3.13
2022-09-26T04:00:14.268Z,2.10
2022-09-26T04:02:35.969Z,2.77
2022-09-26T04:04:57.427Z,5.70
2022-09-26T04:07:18.883Z,2.77
2022-09-26T04:09:40.337Z,5.20
2022-09-26T04:12:01.870Z,4.40
2022-09-26T04:14:23.363Z,2.70
2022-09-26T04:16:44.848Z,3.00
2022-09-26T04:19:06.361Z,3.73
2022-09-26T04:21:28.604Z,3.73
2022-09-26T04:23:50.375Z,3.63
2022-09-26T04:26:20.212Z,3.53
2022-09-26T04:28:44.745Z,3.90
2022-09-26T04:31:07.824Z,2.93
2022-09-26T04:33:29.555Z,3.60
2022-09-26T04:35:51.115Z,3.20
2022-09-26T04:38:12.590Z,3.33
2022-09-26T04:40:35.717Z,2.90
2022-09-26T04:42:59.013Z,3.03
2022-09-26T04:45:20.456Z,3.27
2022-09-26T04:47:41.871Z,3.70
2022-09-26T04:50:03.464Z,3.50
2022-09-26T04:52:24.925Z,3.30
2022-09-26T04:54:46.355Z,3.03
2022-09-26T04:57:07.799Z,3.40
2022-09-26T04:59:29.217Z,3.30
2022-09-26T05:01:50.763Z,3.23
2022-09-26T05:04:12.443Z,4.13
2022-09-26T05:06:33.876Z,3.60
2022-09-26T05:08:55.353Z,4.13
2022-09-26T05:11:17.937Z,4.83
2022-09-26T05:13:39.514Z,4.37
2022-09-26T05:16:02.980Z,3.80
2022-09-26T05:18:25.374Z,4.40
2022-09-26T05:20:48.271Z,4.83
2022-09-26T05:23:10.334Z,5.20
2022-09-26T05:26:08.224Z,3.90
2022-09-26T05:28:29.649Z,4.67
2022-09-26T05:30:51.954Z,4.43
2022-09-26T05:33:13.389Z,3.50
2022-09-26T05:35:35.295Z,3.23
2022-09-26T05:38:01.198Z,3.40
2022-09-26T05:40:41.244Z,3.53
2022-09-26T05:43:03.466Z,3.83
2022-09-26T05:45:24.880Z,4.70
2022-09-26T05:47:48.654Z,3.70
2022-09-26T05:50:10.851Z,4.13
2022-09-26T05:52:32.266Z,3.13
2022-09-26T05:54:53.684Z,2.87
2022-09-26T05:57:15.253Z,3.50
2022-09-26T05:59:36.675Z,3.77
2022-09-26T06:01:58.635Z,4.10
2022-09-26T06:04:20.202Z,3.90
2022-09-26T06:06:42.418Z,3.77
2022-09-26T06:09:04.002Z,3.60
2022-09-26T06:11:30.754Z,3.73
2022-09-26T06:13:52.918Z,4.10
2022-09-26T06:16:18.523Z,4.43
2022-09-26T06:18:41.949Z,3.80
2022-09-26T06:21:04.952Z,3.37
2022-09-26T06:23:26.379Z,3.90
2022-09-26T06:25:47.823Z,4.77
2022-09-26T06:28:09.263Z,4.33
2022-09-26T06:30:31.000Z,3.90
2022-09-26T06:32:53.291Z,3.97
2022-09-26T06:35:15.016Z,3.50
2022-09-26T06:37:36.448Z,3.37
2022-09-26T06:39:59.521Z,3.80
2022-09-26T06:42:21.245Z,4.70
2022-09-26T06:44:42.663Z,4.47
2022-09-26T06:47:04.656Z,4.07
2022-09-26T06:49:27.268Z,5.67
2022-09-26T06:51:51.572Z,6.53
2022-09-26T06:54:12.984Z,5.60
2022-09-26T06:56:34.403Z,5.50
2022-09-26T06:58:55.837Z,5.73
2022-09-26T07:01:18.475Z,5.03
2022-09-26T07:03:45.179Z,5.40
2022-09-26T07:06:07.540Z,4.67
2022-09-26T07:08:57.337Z,4.83
2022-09-26T07:11:32.869Z,3.30
2022-09-26T07:13:53.069Z,3.73
2022-09-26T07:16:14.559Z,3.53
2022-09-26T07:18:37.964Z,3.10
2022-09-26T07:20:59.409Z,3.30
2022-09-26T07:23:20.951Z,3.17
2022-09-26T07:25:46.821Z,3.03
2022-09-26T07:28:10.264Z,3.40
2022-09-26T07:30:31.763Z,3.57
2022-09-26T07:32:53.208Z,3.20
2022-09-26T07:35:17.227Z,3.27
2022-09-26T07:37:38.647Z,2.77
2022-09-26T07:40:01.738Z,3.50
2022-09-26T07:42:23.645Z,3.50
2022-09-26T07:47:45.293Z,2.93
2022-09-26T07:50:16.631Z,2.40
2022-09-26T07:52:39.178Z,2.60
2022-09-26T07:55:00.623Z,2.20
2022-09-26T07:57:22.125Z,2.70
2022-09-26T07:59:43.565Z,3.20
2022-09-26T08:02:05.162Z,2.37
2022-09-26T08:04:28.315Z,2.60
2022-09-26T08:06:50.167Z,2.30
2022-09-26T08:09:11.821Z,2.30
2022-09-26T08:11:33.864Z,2.50
2022-09-26T08:13:55.432Z,2.23
2022-09-26T08:16:23.011Z,2.30
2022-09-26T08:18:44.797Z,1.87
2022-09-26T08:21:07.042Z,1.90
2022-09-26T08:23:29.422Z,2.43
2022-09-26T08:25:50.858Z,2.00
2022-09-26T08:28:12.948Z,2.13
2022-09-26T08:30:34.358Z,2.07
2022-09-26T08:32:59.067Z,2.30
2022-09-26T08:35:20.888Z,1.93
2022-09-26T08:37:42.316Z,1.93
2022-09-26T08:40:03.942Z,2.13
2022-09-26T08:42:54.258Z,2.20
2022-09-26T08:45:43.071Z,2.40
2022-09-26T08:48:33.262Z,1.87
2022-09-26T08:51:02.362Z,2.00
2022-09-26T08:53:40.620Z,1.80
2022-09-26T08:56:09.925Z,1.97
2022-09-26T08:58:40.663Z,2.13
2022-09-26T09:01:11.337Z,2.10
2022-09-26T09:03:54.693Z,2.20
2022-09-26T09:06:17.794Z,2.00
2022-09-26T09:08:43.179Z,1.90
2022-09-26T09:11:13.496Z,1.90
2022-09-26T09:13:37.969Z,1.87
2022-09-26T09:16:23.157Z,1.70
2022-09-26T09:19:11.953Z,1.60
2022-09-26T09:21:55.570Z,1.60
2022-09-26T09:24:28.618Z,2.10
2022-09-26T09:30:17.293Z,1.80
2022-09-26T09:32:51.640Z,1.60
2022-09-26T09:35:20.579Z,1.90
2022-09-26T09:37:48.853Z,1.70
2022-09-26T09:40:21.888Z,1.50
2022-09-26T09:42:48.127Z,1.57
2022-09-26T09:45:23.742Z,1.70
2022-09-26T09:47:45.732Z,1.50
2022-09-26T09:50:40.631Z,1.77
2022-09-26T09:53:45.373Z,1.42
2022-09-26T09:56:23.327Z,1.40
2022-09-26T09:58:53.085Z,1.70
2022-09-26T10:01:28.385Z,1.65
2022-09-26T10:04:01.361Z,1.48
2022-09-26T10:06:46.476Z,1.33
2022-09-26T10:09:35.280Z,2.00
2022-09-26T10:12:17.017Z,1.73
2022-09-26T10:14:46.325Z,1.75
2022-09-26T10:17:10.816Z,1.50
2022-09-26T10:19:39.075Z,1.40
2022-09-26T10:22:01.117Z,1.40
2022-09-26T10:24:40.823Z,1.40
2022-09-26T10:27:15.223Z,1.40
2022-09-26T10:29:38.358Z,1.40
2022-09-26T10:32:00.717Z,1.57
2022-09-26T10:34:30.279Z,1.50
2022-09-26T10:36:52.705Z,1.30
2022-09-26T10:39:39.730Z,1.40
2022-09-26T10:42:02.313Z,1.40
2022-09-26T10:44:34.950Z,1.40
2022-09-26T10:47:00.350Z,1.40
2022-09-26T10:49:26.961Z,1.52
2022-09-26T10:51:56.204Z,1.58
2022-09-26T10:54:26.738Z,1.40
2022-09-26T10:56:59.117Z,1.73
2022-09-26T10:59:27.258Z,1.50
2022-09-26T11:01:56.010Z,1.50
2022-09-26T11:04:52.234Z,1.50
2022-09-26T11:07:29.214Z,1.80
2022-09-26T11:09:52.567Z,1.67
2022-09-26T11:12:25.450Z,1.38
2022-09-26T11:14:47.011Z,1.40
2022-09-26T11:17:08.997Z,1.63
2022-09-26T11:19:53.794Z,1.33
2022-09-26T11:22:23.649Z,1.02
2022-09-26T11:24:52.674Z,1.40
2022-09-26T11:27:44.028Z,1.63
2022-09-26T11:30:20.803Z,1.20
2022-09-26T11:32:45.129Z,1.55
2022-09-26T11:35:34.225Z,1.20
2022-09-26T11:38:35.905Z,1.42
2022-09-26T11:41:39.089Z,1.55
2022-09-26T11:44:20.775Z,1.50
2022-09-26T11:47:27.454Z,1.45
2022-09-26T11:49:59.275Z,0.90
2022-09-26T11:52:49.557Z,1.25
2022-09-26T11:55:10.990Z,0.93
2022-09-26T11:57:55.138Z,1.50
2022-09-26T12:00:29.201Z,1.40
2022-09-26T12:03:13.939Z,1.33
2022-09-26T12:05:50.396Z,1.30
2022-09-26T12:08:30.268Z,1.48
2022-09-26T12:11:16.573Z,1.48
2022-09-26T12:13:47.247Z,1.20
2022-09-26T12:16:41.089Z,1.20
2022-09-26T12:19:15.579Z,1.50
2022-09-26T12:22:03.612Z,1.10
2022-09-26T12:24:35.923Z,1.20
2022-09-26T12:27:10.312Z,1.10
2022-09-26T12:29:40.660Z,1.30
2022-09-26T12:32:39.595Z,1.30
2022-09-26T12:35:44.014Z,1.00
2022-09-26T12:38:25.982Z,1.23
2022-09-26T12:41:04.321Z,1.20
2022-09-26T12:43:44.869Z,1.30
2022-09-26T12:46:27.435Z,1.40
2022-09-26T12:49:31.346Z,1.30
2022-09-26T12:51:58.196Z,1.17
2022-09-26T12:54:37.052Z,1.20
2022-09-26T12:57:22.900Z,1.23
2022-09-26T13:00:22.757Z,2.08
2022-09-26T13:03:35.492Z,1.27
2022-09-26T13:06:29.454Z,1.40
2022-09-26T13:09:07.241Z,1.20
2022-09-26T13:12:14.506Z,1.38
2022-09-26T13:14:55.202Z,1.50
2022-09-26T13:17:22.325Z,1.15
2022-09-26T13:19:55.775Z,1.45
2022-09-26T13:22:42.753Z,1.40
2022-09-26T13:25:37.329Z,1.25
2022-09-26T13:28:07.092Z,1.40
2022-09-26T13:30:36.139Z,1.50
2022-09-26T13:33:23.090Z,1.63
2022-09-26T13:35:47.367Z,1.58
2022-09-26T13:38:37.947Z,1.88
2022-09-26T13:41:26.822Z,1.40
2022-09-26T13:44:08.933Z,1.65
2022-09-26T13:47:00.142Z,1.63
2022-09-26T13:49:43.632Z,1.52
2022-09-26T13:52:15.134Z,1.60
2022-09-26T13:54:45.395Z,1.73
2022-09-26T13:57:31.826Z,2.30
2022-09-26T13:59:54.375Z,1.70
2022-09-26T14:02:29.218Z,1.58
2022-09-26T14:04:53.096Z,1.42
2022-09-26T14:07:35.907Z,1.60
2022-09-26T14:10:08.200Z,1.40
2022-09-26T14:13:05.947Z,1.45
2022-09-26T14:15:54.448Z,1.30
2022-09-26T14:18:28.232Z,1.50
2022-09-26T14:20:57.753Z,1.40
2022-09-26T14:23:38.174Z,1.63
2022-09-26T14:26:06.248Z,1.30
2022-09-26T14:28:36.154Z,1.45
2022-09-26T14:31:31.886Z,1.45
2022-09-26T14:34:17.529Z,1.35
2022-09-26T14:36:39.187Z,1.45
2022-09-26T14:39:02.543Z,1.35
2022-09-26T14:41:28.825Z,1.38
2022-09-26T14:43:51.768Z,1.55
2022-09-26T14:46:24.305Z,1.80
2022-09-26T14:48:46.306Z,1.40
2022-09-26T14:51:15.773Z,1.60
2022-09-26T14:54:02.452Z,1.50
2022-09-26T14:56:29.699Z,2.88
2022-09-26T14:58:51.830Z,2.03
2022-09-26T15:01:23.403Z,1.58
2022-09-26T15:04:08.385Z,1.65
2022-09-26T15:06:35.620Z,1.60
2022-09-26T15:09:01.727Z,1.20
2022-09-26T15:11:34.730Z,1.75
2022-09-26T15:13:56.685Z,1.25
2022-09-26T15:16:32.375Z,1.60
2022-09-26T15:19:03.168Z,1.73
2022-09-26T15:21:26.455Z,1.60
2022-09-26T15:23:53.490Z,1.53
2022-09-26T15:26:19.368Z,1.70
2022-09-26T15:28:40.869Z,1.80
2022-09-26T15:31:28.755Z,1.70
2022-09-26T15:34:02.286Z,1.83
2022-09-26T15:36:28.226Z,1.87
2022-09-26T15:38:49.854Z,1.97
2022-09-26T15:41:39.138Z,1.83
2022-09-26T15:44:01.303Z,2.10
2022-09-26T15:46:24.287Z,1.77
2022-09-26T15:48:45.811Z,2.03
2022-09-26T15:51:39.035Z,1.70
2022-09-26T15:54:07.401Z,1.80
2022-09-26T15:56:40.599Z,1.53
2022-09-26T15:59:13.561Z,1.50
2022-09-26T16:01:41.629Z,1.40
2022-09-26T16:04:13.461Z,1.77
2022-09-26T16:06:42.070Z,1.60
2022-09-26T16:09:09.708Z,1.40
2022-09-26T16:11:32.880Z,1.40
2022-09-26T16:13:56.663Z,1.20
2022-09-26T16:16:24.205Z,1.47
2022-09-26T16:18:52.660Z,1.20
2022-09-26T16:21:21.934Z,1.23
2022-09-26T16:23:49.714Z,1.00
2022-09-26T16:26:30.243Z,1.33
2022-09-26T16:28:55.114Z,1.20
2022-09-26T16:31:24.905Z,1.30
2022-09-26T16:33:51.272Z,1.40
2022-09-26T16:36:28.084Z,1.43
2022-09-26T16:39:01.077Z,1.80
2022-09-26T16:42:00.474Z,1.50
2022-09-26T16:44:35.911Z,1.97
2022-09-26T16:47:02.542Z,1.83
2022-09-26T16:49:45.770Z,1.50
2022-09-26T16:52:20.177Z,1.47
2022-09-26T16:54:41.845Z,1.80
2022-09-26T16:57:05.698Z,1.50
2022-09-26T16:59:29.030Z,1.87
2022-09-26T17:01:54.609Z,1.40
2022-09-26T17:04:18.873Z,1.80
2022-09-26T17:06:40.410Z,1.40
2022-09-26T17:09:12.110Z,1.80
2022-09-26T17:11:33.631Z,1.90
2022-09-26T17:13:55.151Z,3.13
2022-09-26T17:16:16.642Z,4.77
2022-09-26T17:18:38.317Z,4.03
2022-09-26T17:21:00.886Z,2.00
2022-09-26T17:23:39.471Z,2.67
2022-09-26T17:26:02.859Z,2.80
2022-09-26T17:28:37.875Z,1.87
2022-09-26T17:31:06.243Z,1.63
2022-09-26T17:33:29.557Z,2.70
2022-09-26T17:35:51.027Z,2.13
2022-09-26T17:38:13.971Z,4.93
2022-09-26T17:40:35.454Z,3.40
2022-09-26T17:42:59.738Z,1.50
2022-09-26T17:45:25.953Z,1.27
2022-09-26T17:47:47.598Z,1.33
2022-09-26T17:50:20.042Z,2.17
2022-09-26T17:52:41.613Z,1.73
2022-09-26T17:55:06.794Z,1.67
2022-09-26T17:57:30.303Z,1.70
2022-09-26T17:59:54.060Z,1.70
2022-09-26T18:02:31.399Z,2.40
2022-09-26T18:04:54.546Z,2.83
2022-09-26T18:07:16.290Z,2.00
2022-09-26T18:09:39.173Z,2.17
2022-09-26T18:12:04.027Z,2.77
2022-09-26T18:14:25.574Z,2.67
2022-09-26T18:16:47.015Z,1.63
2022-09-26T18:19:09.585Z,1.60
2022-09-26T18:21:30.997Z,2.20
2022-09-26T18:23:56.501Z,1.93
2022-09-26T18:26:28.055Z,1.63
2022-09-26T18:28:49.621Z,1.90
2022-09-26T18:31:11.437Z,2.40
2022-09-26T18:33:37.774Z,1.80
2022-09-26T18:35:59.548Z,1.67
2022-09-26T18:38:22.223Z,1.50
2022-09-26T18:40:50.350Z,2.40
2022-09-26T18:43:19.036Z,1.90
2022-09-26T18:45:40.538Z,1.60
2022-09-26T18:48:08.175Z,2.10
2022-09-26T18:50:36.580Z,3.00
2022-09-26T18:52:58.005Z,3.20
2022-09-26T18:55:41.723Z,2.20
2022-09-26T18:58:21.615Z,2.27
2022-09-26T19:00:43.311Z,2.23
2022-09-26T19:03:04.785Z,1.83
2022-09-26T19:05:26.278Z,1.53
2022-09-26T19:07:47.826Z,1.27
2022-09-26T19:10:15.425Z,1.80
2022-09-26T19:12:39.517Z,2.00
2022-09-26T19:15:00.962Z,1.70
2022-09-26T19:17:22.581Z,1.70
2022-09-26T19:19:44.049Z,1.37
2022-09-26T19:22:17.103Z,1.30
2022-09-26T19:24:46.571Z,1.50
2022-09-26T19:27:16.923Z,1.50
2022-09-26T19:30:04.909Z,1.30
2022-09-26T19:32:33.885Z,1.40
2022-09-26T19:34:59.148Z,1.40
2022-09-26T19:37:20.774Z,1.30
2022-09-26T19:39:42.256Z,1.67
2022-09-26T19:42:03.719Z,1.30
2022-09-26T19:44:25.201Z,1.67
2022-09-26T19:46:47.474Z,1.70
2022-09-26T19:49:16.190Z,1.43
2022-09-26T19:51:39.736Z,1.57
2022-09-26T19:54:05.936Z,1.57
2022-09-26T19:56:27.772Z,1.77
2022-09-26T19:58:50.518Z,1.60
2022-09-26T20:01:21.260Z,1.60
2022-09-26T20:03:44.816Z,1.80
2022-09-26T20:06:23.527Z,1.93
2022-09-26T20:08:45.081Z,1.70
2022-09-26T20:11:07.100Z,1.70
2022-09-26T20:13:48.496Z,1.70
2022-09-26T20:16:12.063Z,1.60
2022-09-26T20:18:33.542Z,1.87
2022-09-26T20:20:56.877Z,1.90
2022-09-26T20:23:22.390Z,1.50
2022-09-26T20:25:43.844Z,1.73
2022-09-26T20:28:05.313Z,1.53
2022-09-26T20:30:45.742Z,1.57
2022-09-26T20:33:08.812Z,1.43
2022-09-26T20:35:35.690Z,1.40
2022-09-26T20:38:03.009Z,1.37
2022-09-26T20:40:24.599Z,1.20
2022-09-26T20:42:50.635Z,1.10
2022-09-26T20:45:16.627Z,1.13
2022-09-26T20:47:40.403Z,1.00
2022-09-26T20:50:02.248Z,1.20
2022-09-26T20:52:26.313Z,1.20
2022-09-26T20:54:47.837Z,1.40
2022-09-26T20:57:09.315Z,1.33
2022-09-26T20:59:34.914Z,1.40
2022-09-26T21:01:57.582Z,1.10
2022-09-26T21:04:21.808Z,1.70
2022-09-26T21:06:44.062Z,1.20
2022-09-26T21:09:05.526Z,1.23
2022-09-26T21:11:27.055Z,1.30
2022-09-26T21:13:48.836Z,1.50
2022-09-26T21:16:15.211Z,1.27
2022-09-26T21:18:37.101Z,1.30
2022-09-26T21:21:05.781Z,1.47
2022-09-26T21:23:27.315Z,1.40
2022-09-26T21:25:48.829Z,1.50
2022-09-26T21:28:28.199Z,1.10
2022-09-26T21:30:49.980Z,1.20
2022-09-26T21:33:13.583Z,1.20
2022-09-26T21:35:35.026Z,1.30
2022-09-26T21:37:58.611Z,1.10
2022-09-26T21:40:22.828Z,1.30
2022-09-26T21:42:49.303Z,1.30
2022-09-26T21:45:11.900Z,1.07
2022-09-26T21:47:36.455Z,0.93
2022-09-26T21:49:58.083Z,1.20
2022-09-26T21:52:24.992Z,1.10
2022-09-26T21:54:46.741Z,1.13
2022-09-26T21:57:16.044Z,1.10
2022-09-26T21:59:39.382Z,1.27
2022-09-26T22:02:00.844Z,0.90
2022-09-26T22:04:22.524Z,1.20
2022-09-26T22:06:43.973Z,1.10
2022-09-26T22:09:05.487Z,0.90
2022-09-26T22:11:27.096Z,0.80
2022-09-26T22:13:48.541Z,1.20
2022-09-26T22:16:12.975Z,1.03
2022-09-26T22:18:35.317Z,0.93
2022-09-26T22:20:56.760Z,1.00
2022-09-26T22:23:18.677Z,0.90
2022-09-26T22:25:42.899Z,0.90
2022-09-26T22:28:04.550Z,1.00
2022-09-26T22:30:26.064Z,0.87
2022-09-26T22:32:47.519Z,0.77
2022-09-26T22:35:09.074Z,0.90
2022-09-26T22:37:30.708Z,1.00
2022-09-26T22:39:53.243Z,0.90
2022-09-26T22:42:14.815Z,0.93
2022-09-26T22:44:36.251Z,0.80
2022-09-26T22:46:57.677Z,1.00
2022-09-26T22:49:19.089Z,1.03
2022-09-26T22:51:41.129Z,0.80
2022-09-26T22:54:02.791Z,0.80
2022-09-26T22:56:24.283Z,0.73
2022-09-26T22:58:49.330Z,0.73
2022-09-26T23:01:13.531Z,0.87
2022-09-26T23:03:35.630Z,0.70
2022-09-26T23:05:57.058Z,0.77
2022-09-26T23:08:18.524Z,0.60
2022-09-26T23:10:39.951Z,0.60
2022-09-26T23:13:01.359Z,0.90
2022-09-26T23:15:22.810Z,0.63
2022-09-26T23:17:44.213Z,1.43
2022-09-26T23:20:06.572Z,0.70
2022-09-26T23:22:27.960Z,0.87
2022-09-26T23:24:49.380Z,0.53
2022-09-26T23:27:10.806Z,0.60
2022-09-26T23:29:32.537Z,0.50
2022-09-26T23:31:53.969Z,0.80
2022-09-26T23:34:15.383Z,0.50
2022-09-26T23:36:36.814Z,0.60
2022-09-26T23:38:58.607Z,0.53
2022-09-26T23:41:20.162Z,0.63
2022-09-26T23:43:41.873Z,0.50
2022-09-26T23:46:04.221Z,0.37
2022-09-26T23:48:25.713Z,0.50
2022-09-26T23:50:47.520Z,0.50
2022-09-26T23:53:08.926Z,0.50
2022-09-26T23:55:30.351Z,0.47
2022-09-26T23:57:51.830Z,0.70
